sensor_id;sensor_type;location;lat;lon;timestamp;P1;durP1;ratioP1;P2;durP2;ratioP2
7783;SDS011;19359;51.402;6.778;2023-12-29T00:00:47;645.80;;;193.57;;
7783;SDS011;19359;51.402;6.778;2023-12-29T00:03:14;695.25;;;215.85;;
7783;SDS011;19359;51.402;6.778;2023-12-29T00:05:41;707.88;;;196.95;;
7783;SDS011;19359;51.402;6.778;2023-12-29T00:08:07;682.90;;;181.57;;
7783;SDS011;19359;51.402;6.778;2023-12-29T00:10:34;705.20;;;208.77;;
7783;SDS011;19359;51.402;6.778;2023-12-29T00:13:03;696.47;;;202.38;;
7783;SDS011;19359;51.402;6.778;2023-12-29T00:15:29;689.58;;;184.82;;
7783;SDS011;19359;51.402;6.778;2023-12-29T00:17:57;694.55;;;180.35;;
7783;SDS011;19359;51.402;6.778;2023-12-29T00:20:23;480.17;;;186.77;;
7783;SDS011;19359;51.402;6.778;2023-12-29T00:22:50;540.42;;;187.65;;
7783;SDS011;19359;51.402;6.778;2023-12-29T00:25:19;632.05;;;190.90;;
7783;SDS011;19359;51.402;6.778;2023-12-29T00:27:45;671.85;;;187.60;;
7783;SDS011;19359;51.402;6.778;2023-12-29T00:30:14;667.35;;;191.93;;
7783;SDS011;19359;51.402;6.778;2023-12-29T00:32:41;707.55;;;191.73;;
7783;SDS011;19359;51.402;6.778;2023-12-29T00:35:08;709.85;;;187.38;;
7783;SDS011;19359;51.402;6.778;2023-12-29T00:37:34;708.97;;;190.68;;
7783;SDS011;19359;51.402;6.778;2023-12-29T00:40:01;570.72;;;200.50;;
7783;SDS011;19359;51.402;6.778;2023-12-29T00:42:28;337.17;;;179.57;;
7783;SDS011;19359;51.402;6.778;2023-12-29T00:44:55;352.67;;;180.98;;
7783;SDS011;19359;51.402;6.778;2023-12-29T00:47:23;546.20;;;200.65;;
7783;SDS011;19359;51.402;6.778;2023-12-29T00:49:49;522.63;;;191.48;;
7783;SDS011;19359;51.402;6.778;2023-12-29T00:52:16;692.45;;;193.35;;
7783;SDS011;19359;51.402;6.778;2023-12-29T00:54:43;658.85;;;194.52;;
7783;SDS011;19359;51.402;6.778;2023-12-29T00:57:10;687.65;;;191.30;;
7783;SDS011;19359;51.402;6.778;2023-12-29T00:59:37;596.17;;;216.48;;
7783;SDS011;19359;51.402;6.778;2023-12-29T01:02:04;589.88;;;203.93;;
7783;SDS011;19359;51.402;6.778;2023-12-29T01:04:33;603.63;;;204.73;;
7783;SDS011;19359;51.402;6.778;2023-12-29T01:07:00;599.42;;;186.55;;
7783;SDS011;19359;51.402;6.778;2023-12-29T01:09:26;653.35;;;219.20;;
7783;SDS011;19359;51.402;6.778;2023-12-29T01:11:53;627.53;;;188.55;;
7783;SDS011;19359;51.402;6.778;2023-12-29T01:14:20;652.33;;;185.00;;
7783;SDS011;19359;51.402;6.778;2023-12-29T01:16:47;662.67;;;187.23;;
7783;SDS011;19359;51.402;6.778;2023-12-29T01:19:13;670.78;;;187.18;;
7783;SDS011;19359;51.402;6.778;2023-12-29T01:21:42;683.63;;;185.68;;
7783;SDS011;19359;51.402;6.778;2023-12-29T01:24:09;695.22;;;181.98;;
7783;SDS011;19359;51.402;6.778;2023-12-29T01:26:36;696.72;;;179.88;;
7783;SDS011;19359;51.402;6.778;2023-12-29T01:29:04;707.25;;;184.98;;
7783;SDS011;19359;51.402;6.778;2023-12-29T01:31:31;707.92;;;185.85;;
7783;SDS011;19359;51.402;6.778;2023-12-29T01:33:58;701.25;;;181.77;;
7783;SDS011;19359;51.402;6.778;2023-12-29T01:36:25;705.60;;;178.30;;
7783;SDS011;19359;51.402;6.778;2023-12-29T01:38:53;704.00;;;177.32;;
7783;SDS011;19359;51.402;6.778;2023-12-29T01:41:20;709.67;;;176.30;;
7783;SDS011;19359;51.402;6.778;2023-12-29T01:46:45;702.13;;;176.20;;
7783;SDS011;19359;51.402;6.778;2023-12-29T01:49:14;705.70;;;173.88;;
7783;SDS011;19359;51.402;6.778;2023-12-29T01:51:42;704.97;;;176.60;;
7783;SDS011;19359;51.402;6.778;2023-12-29T01:54:12;703.00;;;174.35;;
7783;SDS011;19359;51.402;6.778;2023-12-29T01:56:39;696.78;;;164.55;;
7783;SDS011;19359;51.402;6.778;2023-12-29T01:59:07;696.55;;;161.88;;
7783;SDS011;19359;51.402;6.778;2023-12-29T02:01:34;695.83;;;164.27;;
7783;SDS011;19359;51.402;6.778;2023-12-29T02:04:04;693.13;;;163.77;;
7783;SDS011;19359;51.402;6.778;2023-12-29T02:06:31;694.05;;;161.65;;
7783;SDS011;19359;51.402;6.778;2023-12-29T02:08:59;697.45;;;161.32;;
7783;SDS011;19359;51.402;6.778;2023-12-29T02:11:30;693.38;;;162.32;;
7783;SDS011;19359;51.402;6.778;2023-12-29T02:13:57;692.75;;;161.57;;
7783;SDS011;19359;51.402;6.778;2023-12-29T02:16:27;689.22;;;154.85;;
7783;SDS011;19359;51.402;6.778;2023-12-29T02:19:00;687.78;;;154.02;;
7783;SDS011;19359;51.402;6.778;2023-12-29T02:21:35;688.40;;;152.35;;
7783;SDS011;19359;51.402;6.778;2023-12-29T02:24:03;688.28;;;154.10;;
7783;SDS011;19359;51.402;6.778;2023-12-29T02:26:32;690.15;;;153.27;;
7783;SDS011;19359;51.402;6.778;2023-12-29T02:29:02;688.40;;;153.07;;
7783;SDS011;19359;51.402;6.778;2023-12-29T02:31:33;686.63;;;152.38;;
7783;SDS011;19359;51.402;6.778;2023-12-29T02:34:03;683.13;;;149.10;;
7783;SDS011;19359;51.402;6.778;2023-12-29T02:36:33;681.30;;;148.15;;
7783;SDS011;19359;51.402;6.778;2023-12-29T02:39:07;684.42;;;150.32;;
7783;SDS011;19359;51.402;6.778;2023-12-29T02:41:36;682.42;;;150.75;;
7783;SDS011;19359;51.402;6.778;2023-12-29T02:44:03;684.45;;;156.32;;
7783;SDS011;19359;51.402;6.778;2023-12-29T02:46:30;684.15;;;152.98;;
7783;SDS011;19359;51.402;6.778;2023-12-29T02:48:57;681.85;;;150.63;;
7783;SDS011;19359;51.402;6.778;2023-12-29T02:51:25;682.92;;;146.95;;
7783;SDS011;19359;51.402;6.778;2023-12-29T02:53:52;682.58;;;147.57;;
7783;SDS011;19359;51.402;6.778;2023-12-29T02:56:19;683.45;;;149.27;;
7783;SDS011;19359;51.402;6.778;2023-12-29T02:58:48;681.20;;;148.07;;
7783;SDS011;19359;51.402;6.778;2023-12-29T03:01:16;682.97;;;150.23;;
7783;SDS011;19359;51.402;6.778;2023-12-29T03:03:43;681.28;;;153.18;;
7783;SDS011;19359;51.402;6.778;2023-12-29T03:06:10;681.42;;;154.07;;
7783;SDS011;19359;51.402;6.778;2023-12-29T03:08:36;681.92;;;153.80;;
7783;SDS011;19359;51.402;6.778;2023-12-29T03:11:03;683.20;;;150.63;;
7783;SDS011;19359;51.402;6.778;2023-12-29T03:13:30;683.05;;;152.40;;
7783;SDS011;19359;51.402;6.778;2023-12-29T03:15:58;681.92;;;154.82;;
7783;SDS011;19359;51.402;6.778;2023-12-29T03:18:25;681.40;;;149.73;;
7783;SDS011;19359;51.402;6.778;2023-12-29T03:20:52;678.88;;;144.48;;
7783;SDS011;19359;51.402;6.778;2023-12-29T03:23:18;682.83;;;147.20;;
7783;SDS011;19359;51.402;6.778;2023-12-29T03:25:45;686.65;;;151.23;;
7783;SDS011;19359;51.402;6.778;2023-12-29T03:28:12;679.35;;;150.65;;
7783;SDS011;19359;51.402;6.778;2023-12-29T03:30:39;677.03;;;147.75;;
7783;SDS011;19359;51.402;6.778;2023-12-29T03:33:07;675.50;;;145.65;;
7783;SDS011;19359;51.402;6.778;2023-12-29T03:35:34;681.67;;;149.80;;
7783;SDS011;19359;51.402;6.778;2023-12-29T03:38:01;678.72;;;148.60;;
7783;SDS011;19359;51.402;6.778;2023-12-29T03:40:27;681.72;;;149.98;;
7783;SDS011;19359;51.402;6.778;2023-12-29T03:42:54;683.47;;;153.95;;
7783;SDS011;19359;51.402;6.778;2023-12-29T03:45:21;678.15;;;145.02;;
7783;SDS011;19359;51.402;6.778;2023-12-29T03:47:48;682.33;;;152.45;;
7783;SDS011;19359;51.402;6.778;2023-12-29T03:50:16;683.05;;;154.05;;
7783;SDS011;19359;51.402;6.778;2023-12-29T03:52:43;681.50;;;155.15;;
7783;SDS011;19359;51.402;6.778;2023-12-29T03:55:10;680.03;;;151.68;;
7783;SDS011;19359;51.402;6.778;2023-12-29T03:57:37;678.13;;;149.00;;
7783;SDS011;19359;51.402;6.778;2023-12-29T04:00:04;683.15;;;152.70;;
7783;SDS011;19359;51.402;6.778;2023-12-29T04:02:32;682.42;;;152.90;;
7783;SDS011;19359;51.402;6.778;2023-12-29T04:04:59;680.53;;;153.02;;
7783;SDS011;19359;51.402;6.778;2023-12-29T04:07:27;681.55;;;152.23;;
7783;SDS011;19359;51.402;6.778;2023-12-29T04:09:54;681.88;;;153.02;;
7783;SDS011;19359;51.402;6.778;2023-12-29T04:12:21;682.63;;;156.40;;
7783;SDS011;19359;51.402;6.778;2023-12-29T04:14:48;683.72;;;153.77;;
7783;SDS011;19359;51.402;6.778;2023-12-29T04:17:15;684.70;;;152.65;;
7783;SDS011;19359;51.402;6.778;2023-12-29T04:19:42;682.22;;;158.75;;
7783;SDS011;19359;51.402;6.778;2023-12-29T04:22:09;683.55;;;152.80;;
7783;SDS011;19359;51.402;6.778;2023-12-29T04:24:38;681.25;;;156.15;;
7783;SDS011;19359;51.402;6.778;2023-12-29T04:27:05;683.28;;;155.85;;
7783;SDS011;19359;51.402;6.778;2023-12-29T04:29:32;682.47;;;156.90;;
7783;SDS011;19359;51.402;6.778;2023-12-29T04:31:59;680.53;;;151.82;;
7783;SDS011;19359;51.402;6.778;2023-12-29T04:34:25;679.42;;;153.05;;
7783;SDS011;19359;51.402;6.778;2023-12-29T04:36:52;678.75;;;152.60;;
7783;SDS011;19359;51.402;6.778;2023-12-29T04:39:19;678.45;;;151.70;;
7783;SDS011;19359;51.402;6.778;2023-12-29T04:41:47;682.00;;;154.43;;
7783;SDS011;19359;51.402;6.778;2023-12-29T04:44:14;682.60;;;153.27;;
7783;SDS011;19359;51.402;6.778;2023-12-29T04:46:41;679.75;;;155.32;;
7783;SDS011;19359;51.402;6.778;2023-12-29T04:49:08;682.40;;;154.40;;
7783;SDS011;19359;51.402;6.778;2023-12-29T04:51:35;680.60;;;156.02;;
7783;SDS011;19359;51.402;6.778;2023-12-29T04:54:02;683.22;;;151.25;;
7783;SDS011;19359;51.402;6.778;2023-12-29T04:56:28;679.47;;;151.25;;
7783;SDS011;19359;51.402;6.778;2023-12-29T04:58:56;680.92;;;155.40;;
7783;SDS011;19359;51.402;6.778;2023-12-29T05:01:24;681.75;;;152.68;;
7783;SDS011;19359;51.402;6.778;2023-12-29T05:03:50;679.10;;;151.43;;
7783;SDS011;19359;51.402;6.778;2023-12-29T05:06:17;679.72;;;151.18;;
7783;SDS011;19359;51.402;6.778;2023-12-29T05:08:44;681.55;;;149.63;;
7783;SDS011;19359;51.402;6.778;2023-12-29T05:11:11;679.63;;;148.60;;
7783;SDS011;19359;51.402;6.778;2023-12-29T05:13:38;676.55;;;147.57;;
7783;SDS011;19359;51.402;6.778;2023-12-29T05:16:07;678.45;;;150.63;;
7783;SDS011;19359;51.402;6.778;2023-12-29T05:18:33;678.60;;;151.00;;
7783;SDS011;19359;51.402;6.778;2023-12-29T05:21:00;675.72;;;146.30;;
7783;SDS011;19359;51.402;6.778;2023-12-29T05:23:27;677.70;;;146.30;;
7783;SDS011;19359;51.402;6.778;2023-12-29T05:25:54;678.17;;;146.50;;
7783;SDS011;19359;51.402;6.778;2023-12-29T05:28:20;674.03;;;148.85;;
7783;SDS011;19359;51.402;6.778;2023-12-29T05:30:47;673.95;;;146.38;;
7783;SDS011;19359;51.402;6.778;2023-12-29T05:33:15;675.65;;;148.90;;
7783;SDS011;19359;51.402;6.778;2023-12-29T05:35:42;675.95;;;154.88;;
7783;SDS011;19359;51.402;6.778;2023-12-29T05:38:09;677.45;;;150.57;;
7783;SDS011;19359;51.402;6.778;2023-12-29T05:40:36;673.97;;;151.98;;
7783;SDS011;19359;51.402;6.778;2023-12-29T05:43:03;673.13;;;147.93;;
7783;SDS011;19359;51.402;6.778;2023-12-29T05:45:29;681.53;;;152.32;;
7783;SDS011;19359;51.402;6.778;2023-12-29T05:47:56;674.42;;;148.23;;
7783;SDS011;19359;51.402;6.778;2023-12-29T05:50:24;676.78;;;150.82;;
7783;SDS011;19359;51.402;6.778;2023-12-29T05:52:51;678.63;;;152.85;;
7783;SDS011;19359;51.402;6.778;2023-12-29T05:55:18;679.60;;;157.27;;
7783;SDS011;19359;51.402;6.778;2023-12-29T05:57:45;677.60;;;149.95;;
7783;SDS011;19359;51.402;6.778;2023-12-29T06:00:12;677.90;;;154.10;;
7783;SDS011;19359;51.402;6.778;2023-12-29T06:02:40;679.17;;;153.60;;
7783;SDS011;19359;51.402;6.778;2023-12-29T06:05:07;678.72;;;151.63;;
7783;SDS011;19359;51.402;6.778;2023-12-29T06:07:36;675.50;;;148.02;;
7783;SDS011;19359;51.402;6.778;2023-12-29T06:10:03;677.90;;;146.48;;
7783;SDS011;19359;51.402;6.778;2023-12-29T06:12:31;674.10;;;148.23;;
7783;SDS011;19359;51.402;6.778;2023-12-29T06:14:57;680.30;;;150.30;;
7783;SDS011;19359;51.402;6.778;2023-12-29T06:17:24;680.95;;;153.18;;
7783;SDS011;19359;51.402;6.778;2023-12-29T06:19:51;677.78;;;146.90;;
7783;SDS011;19359;51.402;6.778;2023-12-29T06:22:19;674.30;;;146.43;;
7783;SDS011;19359;51.402;6.778;2023-12-29T06:24:47;674.17;;;148.27;;
7783;SDS011;19359;51.402;6.778;2023-12-29T06:27:15;678.42;;;148.20;;
7783;SDS011;19359;51.402;6.778;2023-12-29T06:29:42;673.55;;;147.05;;
7783;SDS011;19359;51.402;6.778;2023-12-29T06:32:09;672.42;;;145.75;;
7783;SDS011;19359;51.402;6.778;2023-12-29T06:34:36;673.83;;;144.20;;
7783;SDS011;19359;51.402;6.778;2023-12-29T06:37:03;673.88;;;146.50;;
7783;SDS011;19359;51.402;6.778;2023-12-29T06:39:29;675.67;;;147.73;;
7783;SDS011;19359;51.402;6.778;2023-12-29T06:41:58;677.05;;;148.18;;
7783;SDS011;19359;51.402;6.778;2023-12-29T06:44:24;670.05;;;142.23;;
7783;SDS011;19359;51.402;6.778;2023-12-29T06:46:51;674.38;;;146.18;;
7783;SDS011;19359;51.402;6.778;2023-12-29T06:49:18;673.92;;;145.82;;
7783;SDS011;19359;51.402;6.778;2023-12-29T06:51:45;676.08;;;143.65;;
7783;SDS011;19359;51.402;6.778;2023-12-29T06:54:12;672.03;;;144.85;;
7783;SDS011;19359;51.402;6.778;2023-12-29T06:56:39;682.88;;;148.93;;
7783;SDS011;19359;51.402;6.778;2023-12-29T06:59:07;671.67;;;146.93;;
7783;SDS011;19359;51.402;6.778;2023-12-29T07:01:34;674.10;;;148.90;;
7783;SDS011;19359;51.402;6.778;2023-12-29T07:04:05;672.08;;;147.02;;
7783;SDS011;19359;51.402;6.778;2023-12-29T07:06:35;672.65;;;146.82;;
7783;SDS011;19359;51.402;6.778;2023-12-29T07:09:02;674.03;;;146.40;;
7783;SDS011;19359;51.402;6.778;2023-12-29T07:11:29;672.20;;;147.15;;
7783;SDS011;19359;51.402;6.778;2023-12-29T07:13:56;671.67;;;143.07;;
7783;SDS011;19359;51.402;6.778;2023-12-29T07:16:24;673.22;;;146.85;;
7783;SDS011;19359;51.402;6.778;2023-12-29T07:18:51;673.22;;;148.43;;
7783;SDS011;19359;51.402;6.778;2023-12-29T07:21:21;671.28;;;142.65;;
7783;SDS011;19359;51.402;6.778;2023-12-29T07:23:47;667.15;;;141.43;;
7783;SDS011;19359;51.402;6.778;2023-12-29T07:26:14;673.95;;;145.68;;
7783;SDS011;19359;51.402;6.778;2023-12-29T07:28:41;669.58;;;144.00;;
7783;SDS011;19359;51.402;6.778;2023-12-29T07:31:08;669.38;;;141.65;;
7783;SDS011;19359;51.402;6.778;2023-12-29T07:33:36;672.22;;;142.63;;
7783;SDS011;19359;51.402;6.778;2023-12-29T07:36:03;670.00;;;143.25;;
7783;SDS011;19359;51.402;6.778;2023-12-29T07:38:30;667.85;;;141.93;;
7783;SDS011;19359;51.402;6.778;2023-12-29T07:40:57;668.35;;;141.57;;
7783;SDS011;19359;51.402;6.778;2023-12-29T07:43:23;669.00;;;141.40;;
7783;SDS011;19359;51.402;6.778;2023-12-29T07:45:51;668.30;;;141.48;;
7783;SDS011;19359;51.402;6.778;2023-12-29T07:48:18;664.88;;;138.00;;
7783;SDS011;19359;51.402;6.778;2023-12-29T07:50:46;669.63;;;140.07;;
7783;SDS011;19359;51.402;6.778;2023-12-29T07:53:13;674.53;;;139.68;;
7783;SDS011;19359;51.402;6.778;2023-12-29T07:55:40;664.92;;;135.15;;
7783;SDS011;19359;51.402;6.778;2023-12-29T07:58:08;669.35;;;141.75;;
7783;SDS011;19359;51.402;6.778;2023-12-29T08:00:36;666.80;;;143.10;;
7783;SDS011;19359;51.402;6.778;2023-12-29T08:03:03;665.63;;;138.35;;
7783;SDS011;19359;51.402;6.778;2023-12-29T08:05:32;666.88;;;140.05;;
7783;SDS011;19359;51.402;6.778;2023-12-29T08:08:01;672.72;;;144.90;;
7783;SDS011;19359;51.402;6.778;2023-12-29T08:10:29;665.03;;;139.40;;
7783;SDS011;19359;51.402;6.778;2023-12-29T08:12:56;672.00;;;140.48;;
7783;SDS011;19359;51.402;6.778;2023-12-29T08:15:23;668.63;;;141.13;;
7783;SDS011;19359;51.402;6.778;2023-12-29T08:17:50;661.78;;;137.32;;
7783;SDS011;19359;51.402;6.778;2023-12-29T08:20:17;664.70;;;135.45;;
7783;SDS011;19359;51.402;6.778;2023-12-29T08:22:46;665.95;;;137.32;;
7783;SDS011;19359;51.402;6.778;2023-12-29T08:25:14;667.05;;;136.38;;
7783;SDS011;19359;51.402;6.778;2023-12-29T08:27:41;667.17;;;142.00;;
7783;SDS011;19359;51.402;6.778;2023-12-29T08:30:08;667.20;;;137.00;;
7783;SDS011;19359;51.402;6.778;2023-12-29T08:32:36;664.20;;;140.60;;
7783;SDS011;19359;51.402;6.778;2023-12-29T08:35:03;663.05;;;140.65;;
7783;SDS011;19359;51.402;6.778;2023-12-29T08:37:31;665.20;;;140.82;;
7783;SDS011;19359;51.402;6.778;2023-12-29T08:39:58;662.25;;;137.73;;
7783;SDS011;19359;51.402;6.778;2023-12-29T08:42:27;664.60;;;139.13;;
7783;SDS011;19359;51.402;6.778;2023-12-29T08:44:54;662.88;;;136.80;;
7783;SDS011;19359;51.402;6.778;2023-12-29T08:47:21;665.85;;;143.65;;
7783;SDS011;19359;51.402;6.778;2023-12-29T08:49:48;664.97;;;138.52;;
7783;SDS011;19359;51.402;6.778;2023-12-29T08:52:16;661.45;;;138.75;;
7783;SDS011;19359;51.402;6.778;2023-12-29T08:54:43;663.03;;;137.57;;
7783;SDS011;19359;51.402;6.778;2023-12-29T08:57:09;662.63;;;135.55;;
7783;SDS011;19359;51.402;6.778;2023-12-29T08:59:37;660.17;;;137.50;;
7783;SDS011;19359;51.402;6.778;2023-12-29T09:02:05;660.55;;;135.90;;
7783;SDS011;19359;51.402;6.778;2023-12-29T09:04:32;662.80;;;136.35;;
7783;SDS011;19359;51.402;6.778;2023-12-29T09:06:59;664.40;;;139.50;;
7783;SDS011;19359;51.402;6.778;2023-12-29T09:09:26;663.45;;;136.60;;
7783;SDS011;19359;51.402;6.778;2023-12-29T09:11:52;661.63;;;136.85;;
7783;SDS011;19359;51.402;6.778;2023-12-29T09:14:19;661.60;;;134.30;;
7783;SDS011;19359;51.402;6.778;2023-12-29T09:16:47;662.85;;;138.40;;
7783;SDS011;19359;51.402;6.778;2023-12-29T09:19:14;663.63;;;137.38;;
7783;SDS011;19359;51.402;6.778;2023-12-29T09:21:41;658.22;;;135.13;;
7783;SDS011;19359;51.402;6.778;2023-12-29T09:24:07;660.50;;;137.20;;
7783;SDS011;19359;51.402;6.778;2023-12-29T09:26:34;660.47;;;140.00;;
7783;SDS011;19359;51.402;6.778;2023-12-29T09:29:01;662.33;;;137.93;;
7783;SDS011;19359;51.402;6.778;2023-12-29T09:31:28;661.38;;;139.70;;
7783;SDS011;19359;51.402;6.778;2023-12-29T09:33:56;664.33;;;140.95;;
7783;SDS011;19359;51.402;6.778;2023-12-29T09:36:23;659.53;;;134.50;;
7783;SDS011;19359;51.402;6.778;2023-12-29T09:38:50;661.83;;;140.55;;
7783;SDS011;19359;51.402;6.778;2023-12-29T09:41:17;660.60;;;134.93;;
7783;SDS011;19359;51.402;6.778;2023-12-29T09:43:46;657.83;;;133.82;;
7783;SDS011;19359;51.402;6.778;2023-12-29T09:46:18;660.38;;;135.43;;
7783;SDS011;19359;51.402;6.778;2023-12-29T09:48:48;658.22;;;138.05;;
7783;SDS011;19359;51.402;6.778;2023-12-29T09:51:21;660.65;;;136.88;;
7783;SDS011;19359;51.402;6.778;2023-12-29T09:53:49;661.00;;;135.20;;
7783;SDS011;19359;51.402;6.778;2023-12-29T09:56:17;658.90;;;134.85;;
7783;SDS011;19359;51.402;6.778;2023-12-29T09:58:46;659.33;;;135.75;;
7783;SDS011;19359;51.402;6.778;2023-12-29T10:01:14;656.40;;;135.18;;
7783;SDS011;19359;51.402;6.778;2023-12-29T10:03:43;660.13;;;136.73;;
7783;SDS011;19359;51.402;6.778;2023-12-29T10:06:10;656.50;;;134.77;;
7783;SDS011;19359;51.402;6.778;2023-12-29T10:08:42;657.58;;;137.90;;
7783;SDS011;19359;51.402;6.778;2023-12-29T10:11:12;653.83;;;131.75;;
7783;SDS011;19359;51.402;6.778;2023-12-29T10:13:40;652.10;;;133.73;;
7783;SDS011;19359;51.402;6.778;2023-12-29T10:16:08;653.63;;;134.10;;
7783;SDS011;19359;51.402;6.778;2023-12-29T10:18:45;650.28;;;133.50;;
7783;SDS011;19359;51.402;6.778;2023-12-29T10:21:21;647.88;;;131.05;;
7783;SDS011;19359;51.402;6.778;2023-12-29T10:23:55;649.33;;;130.05;;
7783;SDS011;19359;51.402;6.778;2023-12-29T10:26:28;648.97;;;130.15;;
7783;SDS011;19359;51.402;6.778;2023-12-29T10:28:55;649.90;;;137.05;;
7783;SDS011;19359;51.402;6.778;2023-12-29T10:31:23;647.83;;;130.85;;
7783;SDS011;19359;51.402;6.778;2023-12-29T10:33:51;650.95;;;130.98;;
7783;SDS011;19359;51.402;6.778;2023-12-29T10:36:17;650.05;;;131.80;;
7783;SDS011;19359;51.402;6.778;2023-12-29T10:38:44;649.15;;;131.63;;
7783;SDS011;19359;51.402;6.778;2023-12-29T10:41:14;647.22;;;132.70;;
7783;SDS011;19359;51.402;6.778;2023-12-29T10:43:42;652.97;;;137.02;;
7783;SDS011;19359;51.402;6.778;2023-12-29T10:46:12;651.42;;;136.50;;
7783;SDS011;19359;51.402;6.778;2023-12-29T10:48:40;654.60;;;134.48;;
7783;SDS011;19359;51.402;6.778;2023-12-29T10:51:06;655.08;;;134.07;;
7783;SDS011;19359;51.402;6.778;2023-12-29T10:53:37;656.78;;;134.70;;
7783;SDS011;19359;51.402;6.778;2023-12-29T10:56:21;658.53;;;136.25;;
7783;SDS011;19359;51.402;6.778;2023-12-29T10:58:56;656.65;;;136.52;;
7783;SDS011;19359;51.402;6.778;2023-12-29T11:01:28;661.45;;;142.10;;
7783;SDS011;19359;51.402;6.778;2023-12-29T11:03:58;661.03;;;141.52;;
7783;SDS011;19359;51.402;6.778;2023-12-29T11:06:26;660.22;;;140.77;;
7783;SDS011;19359;51.402;6.778;2023-12-29T11:08:54;663.95;;;141.40;;
7783;SDS011;19359;51.402;6.778;2023-12-29T11:11:22;665.08;;;143.13;;
7783;SDS011;19359;51.402;6.778;2023-12-29T11:13:50;664.00;;;146.40;;
7783;SDS011;19359;51.402;6.778;2023-12-29T11:16:18;661.72;;;146.48;;
7783;SDS011;19359;51.402;6.778;2023-12-29T11:18:49;666.10;;;146.30;;
7783;SDS011;19359;51.402;6.778;2023-12-29T11:21:17;663.58;;;145.93;;
7783;SDS011;19359;51.402;6.778;2023-12-29T11:23:45;665.70;;;151.52;;
7783;SDS011;19359;51.402;6.778;2023-12-29T11:26:13;660.10;;;142.90;;
7783;SDS011;19359;51.402;6.778;2023-12-29T11:28:43;662.92;;;148.25;;
7783;SDS011;19359;51.402;6.778;2023-12-29T11:31:12;667.00;;;145.40;;
7783;SDS011;19359;51.402;6.778;2023-12-29T11:33:40;662.80;;;147.10;;
7783;SDS011;19359;51.402;6.778;2023-12-29T11:36:12;665.20;;;147.45;;
7783;SDS011;19359;51.402;6.778;2023-12-29T11:38:44;667.33;;;150.90;;
7783;SDS011;19359;51.402;6.778;2023-12-29T11:41:19;667.22;;;149.82;;
7783;SDS011;19359;51.402;6.778;2023-12-29T11:43:57;664.67;;;150.30;;
7783;SDS011;19359;51.402;6.778;2023-12-29T11:46:35;427.30;;;207.57;;
7783;SDS011;19359;51.402;6.778;2023-12-29T11:49:03;243.10;;;162.98;;
7783;SDS011;19359;51.402;6.778;2023-12-29T11:51:31;335.02;;;180.48;;
7783;SDS011;19359;51.402;6.778;2023-12-29T11:53:59;622.03;;;202.25;;
7783;SDS011;19359;51.402;6.778;2023-12-29T11:56:36;317.92;;;179.18;;
7783;SDS011;19359;51.402;6.778;2023-12-29T11:59:13;20.40;;;19.70;;
7783;SDS011;19359;51.402;6.778;2023-12-29T12:01:41;18.90;;;18.02;;
7783;SDS011;19359;51.402;6.778;2023-12-29T12:07:02;157.75;;;127.88;;
7783;SDS011;19359;51.402;6.778;2023-12-29T12:09:29;461.90;;;188.43;;
7783;SDS011;19359;51.402;6.778;2023-12-29T12:11:56;113.47;;;90.40;;
7783;SDS011;19359;51.402;6.778;2023-12-29T12:17:12;488.15;;;192.40;;
7783;SDS011;19359;51.402;6.778;2023-12-29T12:19:55;468.58;;;189.88;;
7783;SDS011;19359;51.402;6.778;2023-12-29T12:22:24;531.88;;;182.23;;
7783;SDS011;19359;51.402;6.778;2023-12-29T12:24:54;498.17;;;189.77;;
7783;SDS011;19359;51.402;6.778;2023-12-29T12:27:24;529.40;;;184.90;;
7783;SDS011;19359;51.402;6.778;2023-12-29T12:29:55;522.30;;;185.77;;
7783;SDS011;19359;51.402;6.778;2023-12-29T12:32:24;533.47;;;174.25;;
7783;SDS011;19359;51.402;6.778;2023-12-29T12:34:54;557.40;;;183.55;;
7783;SDS011;19359;51.402;6.778;2023-12-29T12:37:22;571.33;;;180.98;;
7783;SDS011;19359;51.402;6.778;2023-12-29T12:39:49;542.58;;;172.77;;
7783;SDS011;19359;51.402;6.778;2023-12-29T12:42:17;564.95;;;177.32;;
7783;SDS011;19359;51.402;6.778;2023-12-29T12:44:48;590.63;;;174.48;;
7783;SDS011;19359;51.402;6.778;2023-12-29T12:47:24;582.60;;;167.02;;
7783;SDS011;19359;51.402;6.778;2023-12-29T12:49:58;581.00;;;163.60;;
7783;SDS011;19359;51.402;6.778;2023-12-29T12:52:25;592.95;;;162.23;;
7783;SDS011;19359;51.402;6.778;2023-12-29T12:54:56;590.08;;;164.90;;
7783;SDS011;19359;51.402;6.778;2023-12-29T12:57:23;552.88;;;167.18;;
7783;SDS011;19359;51.402;6.778;2023-12-29T12:59:50;551.10;;;169.82;;
7783;SDS011;19359;51.402;6.778;2023-12-29T13:02:19;556.88;;;162.95;;
7783;SDS011;19359;51.402;6.778;2023-12-29T13:04:48;571.22;;;166.85;;
7783;SDS011;19359;51.402;6.778;2023-12-29T13:07:16;578.55;;;168.77;;
7783;SDS011;19359;51.402;6.778;2023-12-29T13:09:44;583.13;;;168.80;;
7783;SDS011;19359;51.402;6.778;2023-12-29T13:12:13;665.00;;;163.18;;
7783;SDS011;19359;51.402;6.778;2023-12-29T13:14:41;680.72;;;178.13;;
7783;SDS011;19359;51.402;6.778;2023-12-29T13:17:08;532.15;;;168.45;;
7783;SDS011;19359;51.402;6.778;2023-12-29T13:19:36;507.30;;;159.85;;
7783;SDS011;19359;51.402;6.778;2023-12-29T13:22:08;480.40;;;160.18;;
7783;SDS011;19359;51.402;6.778;2023-12-29T13:24:42;689.35;;;171.73;;
7783;SDS011;19359;51.402;6.778;2023-12-29T13:27:09;695.50;;;172.13;;
7783;SDS011;19359;51.402;6.778;2023-12-29T13:29:38;503.80;;;167.38;;
7783;SDS011;19359;51.402;6.778;2023-12-29T13:32:07;487.17;;;166.10;;
7783;SDS011;19359;51.402;6.778;2023-12-29T13:34:38;506.83;;;165.73;;
7783;SDS011;19359;51.402;6.778;2023-12-29T13:37:16;527.65;;;163.88;;
7783;SDS011;19359;51.402;6.778;2023-12-29T13:39:48;564.03;;;168.88;;
7783;SDS011;19359;51.402;6.778;2023-12-29T13:42:20;550.75;;;163.18;;
7783;SDS011;19359;51.402;6.778;2023-12-29T13:44:51;567.47;;;169.05;;
7783;SDS011;19359;51.402;6.778;2023-12-29T13:47:20;567.15;;;173.00;;
7783;SDS011;19359;51.402;6.778;2023-12-29T13:49:48;578.35;;;169.65;;
7783;SDS011;19359;51.402;6.778;2023-12-29T13:52:17;590.70;;;170.95;;
7783;SDS011;19359;51.402;6.778;2023-12-29T13:54:45;602.92;;;174.98;;
7783;SDS011;19359;51.402;6.778;2023-12-29T13:57:12;608.75;;;180.85;;
7783;SDS011;19359;51.402;6.778;2023-12-29T13:59:39;610.35;;;174.48;;
7783;SDS011;19359;51.402;6.778;2023-12-29T14:02:18;625.58;;;181.98;;
7783;SDS011;19359;51.402;6.778;2023-12-29T14:04:51;631.75;;;174.77;;
7783;SDS011;19359;51.402;6.778;2023-12-29T14:07:38;658.15;;;180.32;;
7783;SDS011;19359;51.402;6.778;2023-12-29T14:10:14;616.17;;;173.25;;
7783;SDS011;19359;51.402;6.778;2023-12-29T14:12:44;543.83;;;189.50;;
7783;SDS011;19359;51.402;6.778;2023-12-29T14:15:11;58.53;;;53.85;;
7783;SDS011;19359;51.402;6.778;2023-12-29T14:17:37;3.08;;;0.80;;
7783;SDS011;19359;51.402;6.778;2023-12-29T14:20:06;1.25;;;1.15;;
7783;SDS011;19359;51.402;6.778;2023-12-29T14:22:33;0.70;;;0.50;;